sensor_id;sensor_type;location;lat;lon;timestamp;pressure;altitude;pressure_sealevel;temperature;humidity
55149;BME280;49539;48.160;11.530;2022-07-17T00:00:00;96585.19;;;16.78;100.00
55149;BME280;49539;48.160;11.530;2022-07-17T00:02:25;96586.75;;;16.79;100.00
55149;BME280;49539;48.160;11.530;2022-07-17T00:04:51;96586.94;;;16.72;100.00
55149;BME280;49539;48.160;11.530;2022-07-17T00:07:16;96593.34;;;16.69;100.00
55149;BME280;49539;48.160;11.530;2022-07-17T00:09:41;96594.09;;;16.70;100.00
55149;BME280;49539;48.160;11.530;2022-07-17T00:12:07;96591.47;;;16.66;100.00
55149;BME280;49539;48.160;11.530;2022-07-17T00:14:32;96592.13;;;16.57;100.00
55149;BME280;49539;48.160;11.530;2022-07-17T00:16:58;96590.72;;;16.53;100.00
55149;BME280;49539;48.160;11.530;2022-07-17T00:19:25;96585.91;;;16.44;100.00
55149;BME280;49539;48.160;11.530;2022-07-17T00:21:50;96590.72;;;16.53;100.00
55149;BME280;49539;48.160;11.530;2022-07-17T00:24:16;96589.19;;;16.52;100.00
55149;BME280;49539;48.160;11.530;2022-07-17T00:26:48;96588.53;;;16.48;100.00
55149;BME280;49539;48.160;11.530;2022-07-17T00:29:15;96590.41;;;16.51;100.00
55149;BME280;49539;48.160;11.530;2022-07-17T00:31:41;96594.59;;;16.43;100.00
55149;BME280;49539;48.160;11.530;2022-07-17T00:34:06;96584.47;;;16.40;100.00
55149;BME280;49539;48.160;11.530;2022-07-17T00:36:31;96583.16;;;16.44;100.00
55149;BME280;49539;48.160;11.530;2022-07-17T00:38:57;96591.19;;;16.38;100.00
55149;BME280;49539;48.160;11.530;2022-07-17T00:41:22;96591.19;;;16.38;100.00
55149;BME280;49539;48.160;11.530;2022-07-17T00:43:48;96593.19;;;16.38;100.00
55149;BME280;49539;48.160;11.530;2022-07-17T00:46:14;96588.69;;;16.31;100.00
55149;BME280;49539;48.160;11.530;2022-07-17T00:48:39;96591.63;;;16.24;100.00
55149;BME280;49539;48.160;11.530;2022-07-17T00:51:05;96594.06;;;16.35;100.00
55149;BME280;49539;48.160;11.530;2022-07-17T00:53:32;96589.66;;;16.25;100.00
55149;BME280;49539;48.160;11.530;2022-07-17T00:56:01;96590.44;;;16.25;100.00
55149;BME280;49539;48.160;11.530;2022-07-17T00:58:29;96598.56;;;16.29;100.00
55149;BME280;49539;48.160;11.530;2022-07-17T01:00:55;96595.72;;;16.20;100.00
55149;BME280;49539;48.160;11.530;2022-07-17T01:03:23;96591.53;;;16.28;100.00
55149;BME280;49539;48.160;11.530;2022-07-17T01:05:49;96598.16;;;16.18;100.00
55149;BME280;49539;48.160;11.530;2022-07-17T01:08:14;96589.13;;;16.17;100.00
55149;BME280;49539;48.160;11.530;2022-07-17T01:10:40;96591.66;;;16.11;100.00
55149;BME280;49539;48.160;11.530;2022-07-17T01:13:06;96592.09;;;16.10;100.00
55149;BME280;49539;48.160;11.530;2022-07-17T01:15:33;96586.72;;;15.94;100.00
55149;BME280;49539;48.160;11.530;2022-07-17T01:18:04;96584.72;;;15.94;100.00
55149;BME280;49539;48.160;11.530;2022-07-17T01:20:29;96581.22;;;15.94;100.00
55149;BME280;49539;48.160;11.530;2022-07-17T01:22:55;96585.72;;;15.87;100.00
55149;BME280;49539;48.160;11.530;2022-07-17T01:25:22;96585.72;;;15.87;100.00
55149;BME280;49539;48.160;11.530;2022-07-17T01:27:48;96583.63;;;15.92;100.00
55149;BME280;49539;48.160;11.530;2022-07-17T01:30:13;96590.44;;;15.87;100.00
55149;BME280;49539;48.160;11.530;2022-07-17T01:32:40;96579.13;;;15.72;100.00
55149;BME280;49539;48.160;11.530;2022-07-17T01:35:08;96585.13;;;15.67;100.00
55149;BME280;49539;48.160;11.530;2022-07-17T01:37:34;96591.84;;;15.79;100.00
55149;BME280;49539;48.160;11.530;2022-07-17T01:40:00;96584.94;;;15.74;100.00
55149;BME280;49539;48.160;11.530;2022-07-17T01:42:26;96591.59;;;15.60;100.00
55149;BME280;49539;48.160;11.530;2022-07-17T01:44:53;96590.25;;;15.52;100.00
55149;BME280;49539;48.160;11.530;2022-07-17T01:47:19;96590.38;;;15.49;100.00
55149;BME280;49539;48.160;11.530;2022-07-17T01:49:47;96590.81;;;15.47;100.00
55149;BME280;49539;48.160;11.530;2022-07-17T01:52:13;96589.81;;;15.54;100.00
55149;BME280;49539;48.160;11.530;2022-07-17T01:54:40;96595.00;;;15.52;100.00
55149;BME280;49539;48.160;11.530;2022-07-17T01:57:05;96590.25;;;15.39;100.00
55149;BME280;49539;48.160;11.530;2022-07-17T01:59:31;96590.00;;;15.47;100.00
55149;BME280;49539;48.160;11.530;2022-07-17T02:01:56;96596.97;;;15.51;100.00
55149;BME280;49539;48.160;11.530;2022-07-17T02:04:22;96597.34;;;15.37;100.00
55149;BME280;49539;48.160;11.530;2022-07-17T02:06:47;96592.72;;;15.34;100.00
55149;BME280;49539;48.160;11.530;2022-07-17T02:09:12;96586.06;;;15.35;100.00
55149;BME280;49539;48.160;11.530;2022-07-17T02:11:38;96593.72;;;15.27;100.00
55149;BME280;49539;48.160;11.530;2022-07-17T02:14:03;96591.38;;;15.26;100.00
55149;BME280;49539;48.160;11.530;2022-07-17T02:16:29;96590.41;;;15.20;100.00
55149;BME280;49539;48.160;11.530;2022-07-17T02:18:54;96581.91;;;15.14;100.00
55149;BME280;49539;48.160;11.530;2022-07-17T02:21:20;96584.56;;;15.18;100.00
55149;BME280;49539;48.160;11.530;2022-07-17T02:23:45;96590.03;;;15.18;100.00
55149;BME280;49539;48.160;11.530;2022-07-17T02:26:10;96586.00;;;15.22;100.00
55149;BME280;49539;48.160;11.530;2022-07-17T02:28:36;96582.16;;;15.20;100.00
55149;BME280;49539;48.160;11.530;2022-07-17T02:31:01;96590.81;;;15.18;100.00
55149;BME280;49539;48.160;11.530;2022-07-17T02:33:27;96583.22;;;15.09;100.00
55149;BME280;49539;48.160;11.530;2022-07-17T02:35:52;96584.50;;;15.05;100.00
55149;BME280;49539;48.160;11.530;2022-07-17T02:38:18;96587.25;;;15.05;100.00
55149;BME280;49539;48.160;11.530;2022-07-17T02:40:43;96589.78;;;14.99;100.00
55149;BME280;49539;48.160;11.530;2022-07-17T02:43:10;96591.31;;;15.00;100.00
55149;BME280;49539;48.160;11.530;2022-07-17T02:45:35;96584.97;;;15.03;100.00
55149;BME280;49539;48.160;11.530;2022-07-17T02:48:01;96589.84;;;14.96;100.00
55149;BME280;49539;48.160;11.530;2022-07-17T02:50:26;96582.97;;;15.04;100.00
55149;BME280;49539;48.160;11.530;2022-07-17T02:52:52;96581.03;;;14.88;100.00
55149;BME280;49539;48.160;11.530;2022-07-17T02:55:18;96579.50;;;14.87;100.00
55149;BME280;49539;48.160;11.530;2022-07-17T02:57:44;96583.47;;;14.86;100.00
55149;BME280;49539;48.160;11.530;2022-07-17T03:00:13;96595.72;;;14.81;100.00
55149;BME280;49539;48.160;11.530;2022-07-17T03:02:41;96592.19;;;14.81;100.00
55149;BME280;49539;48.160;11.530;2022-07-17T03:05:06;96594.44;;;14.86;100.00
55149;BME280;49539;48.160;11.530;2022-07-17T03:07:32;96596.41;;;14.85;100.00
55149;BME280;49539;48.160;11.530;2022-07-17T03:09:57;96599.47;;;14.87;100.00
55149;BME280;49539;48.160;11.530;2022-07-17T03:12:23;96594.19;;;14.80;100.00
55149;BME280;49539;48.160;11.530;2022-07-17T03:14:49;96596.22;;;14.76;100.00
55149;BME280;49539;48.160;11.530;2022-07-17T03:17:14;96590.59;;;14.67;100.00
55149;BME280;49539;48.160;11.530;2022-07-17T03:19:40;96585.13;;;14.67;100.00
55149;BME280;49539;48.160;11.530;2022-07-17T03:22:05;96588.72;;;14.64;100.00
55149;BME280;49539;48.160;11.530;2022-07-17T03:24:31;96584.44;;;14.63;100.00
55149;BME280;49539;48.160;11.530;2022-07-17T03:26:57;96587.63;;;14.61;100.00
55149;BME280;49539;48.160;11.530;2022-07-17T03:29:22;96583.66;;;14.62;100.00
55149;BME280;49539;48.160;11.530;2022-07-17T03:31:48;96595.06;;;14.61;100.00
55149;BME280;49539;48.160;11.530;2022-07-17T03:34:14;96583.75;;;14.59;100.00
55149;BME280;49539;48.160;11.530;2022-07-17T03:36:40;96588.03;;;14.60;100.00
55149;BME280;49539;48.160;11.530;2022-07-17T03:39:06;96582.81;;;14.66;100.00
55149;BME280;49539;48.160;11.530;2022-07-17T03:41:31;96586.59;;;14.55;100.00
55149;BME280;49539;48.160;11.530;2022-07-17T03:43:57;96592.41;;;14.57;100.00
55149;BME280;49539;48.160;11.530;2022-07-17T03:46:22;96583.06;;;14.55;100.00
55149;BME280;49539;48.160;11.530;2022-07-17T03:48:48;96583.59;;;14.50;100.00
55149;BME280;49539;48.160;11.530;2022-07-17T03:51:13;96582.75;;;14.53;100.00
55149;BME280;49539;48.160;11.530;2022-07-17T03:53:39;96590.09;;;14.56;100.00
55149;BME280;49539;48.160;11.530;2022-07-17T03:56:05;96587.34;;;14.56;100.00
55149;BME280;49539;48.160;11.530;2022-07-17T03:58:31;96595.22;;;14.70;100.00
55149;BME280;49539;48.160;11.530;2022-07-17T04:00:57;96593.50;;;14.60;100.00
55149;BME280;49539;48.160;11.530;2022-07-17T04:03:22;96593.19;;;14.58;100.00
55149;BME280;49539;48.160;11.530;2022-07-17T04:05:48;96598.00;;;14.54;100.00
55149;BME280;49539;48.160;11.530;2022-07-17T04:08:13;96599.69;;;14.64;100.00
55149;BME280;49539;48.160;11.530;2022-07-17T04:10:39;96595.84;;;14.61;100.00
55149;BME280;49539;48.160;11.530;2022-07-17T04:13:04;96607.91;;;14.64;100.00
55149;BME280;49539;48.160;11.530;2022-07-17T04:15:30;96604.75;;;14.66;100.00
55149;BME280;49539;48.160;11.530;2022-07-17T04:18:18;96601.56;;;14.67;100.00
55149;BME280;49539;48.160;11.530;2022-07-17T04:20:43;96603.69;;;14.76;100.00
55149;BME280;49539;48.160;11.530;2022-07-17T04:23:09;96606.88;;;14.74;100.00
55149;BME280;49539;48.160;11.530;2022-07-17T04:25:34;96613.03;;;14.78;100.00
55149;BME280;49539;48.160;11.530;2022-07-17T04:28:00;96617.31;;;14.79;100.00
55149;BME280;49539;48.160;11.530;2022-07-17T04:30:26;96610.22;;;14.82;100.00
55149;BME280;49539;48.160;11.530;2022-07-17T04:32:52;96611.31;;;14.84;100.00
55149;BME280;49539;48.160;11.530;2022-07-17T04:35:17;96602.13;;;14.91;100.00
55149;BME280;49539;48.160;11.530;2022-07-17T04:37:43;96608.75;;;14.94;100.00
55149;BME280;49539;48.160;11.530;2022-07-17T04:40:10;96610.09;;;15.02;100.00
55149;BME280;49539;48.160;11.530;2022-07-17T04:42:35;96612.63;;;15.09;100.00
55149;BME280;49539;48.160;11.530;2022-07-17T04:45:00;96613.84;;;15.08;100.00
55149;BME280;49539;48.160;11.530;2022-07-17T04:47:26;96605.06;;;15.13;100.00
55149;BME280;49539;48.160;11.530;2022-07-17T04:49:51;96601.13;;;15.14;100.00
55149;BME280;49539;48.160;11.530;2022-07-17T04:52:17;96600.25;;;15.17;100.00
55149;BME280;49539;48.160;11.530;2022-07-17T04:54:42;96606.78;;;15.23;100.00
55149;BME280;49539;48.160;11.530;2022-07-17T04:57:07;96607.94;;;15.22;100.00
55149;BME280;49539;48.160;11.530;2022-07-17T04:59:33;96608.31;;;15.24;100.00
55149;BME280;49539;48.160;11.530;2022-07-17T05:01:58;96608.22;;;15.28;100.00
55149;BME280;49539;48.160;11.530;2022-07-17T05:04:24;96605.69;;;15.33;100.00
55149;BME280;49539;48.160;11.530;2022-07-17T05:06:49;96608.91;;;15.45;100.00
55149;BME280;49539;48.160;11.530;2022-07-17T05:09:15;96606.63;;;15.43;100.00
55149;BME280;49539;48.160;11.530;2022-07-17T05:11:40;96601.88;;;15.44;100.00
55149;BME280;49539;48.160;11.530;2022-07-17T05:14:06;96595.41;;;15.50;100.00
55149;BME280;49539;48.160;11.530;2022-07-17T05:16:31;96599.16;;;15.56;100.00
55149;BME280;49539;48.160;11.530;2022-07-17T05:18:56;96598.00;;;15.70;100.00
55149;BME280;49539;48.160;11.530;2022-07-17T05:21:22;96594.81;;;15.72;100.00
55149;BME280;49539;48.160;11.530;2022-07-17T05:23:47;96605.59;;;15.79;100.00
55149;BME280;49539;48.160;11.530;2022-07-17T05:26:13;96602.75;;;15.82;100.00
55149;BME280;49539;48.160;11.530;2022-07-17T05:28:38;96597.25;;;15.95;100.00
55149;BME280;49539;48.160;11.530;2022-07-17T05:31:04;96605.06;;;15.97;100.00
55149;BME280;49539;48.160;11.530;2022-07-17T05:33:30;96598.03;;;16.08;100.00
55149;BME280;49539;48.160;11.530;2022-07-17T05:35:55;96594.28;;;16.15;100.00
55149;BME280;49539;48.160;11.530;2022-07-17T05:38:20;96597.69;;;16.19;100.00
55149;BME280;49539;48.160;11.530;2022-07-17T05:40:46;96591.88;;;16.30;100.00
55149;BME280;49539;48.160;11.530;2022-07-17T05:43:11;96596.91;;;16.31;100.00
55149;BME280;49539;48.160;11.530;2022-07-17T05:45:37;96597.38;;;16.30;100.00
55149;BME280;49539;48.160;11.530;2022-07-17T05:48:05;96598.13;;;16.43;100.00
55149;BME280;49539;48.160;11.530;2022-07-17T05:50:32;96590.41;;;16.51;100.00
55149;BME280;49539;48.160;11.530;2022-07-17T05:52:57;96590.59;;;16.56;100.00
55149;BME280;49539;48.160;11.530;2022-07-17T05:55:23;96593.91;;;16.64;100.00
55149;BME280;49539;48.160;11.530;2022-07-17T05:57:48;96602.03;;;16.68;100.00
55149;BME280;49539;48.160;11.530;2022-07-17T06:00:14;96601.38;;;16.76;100.00
55149;BME280;49539;48.160;11.530;2022-07-17T06:02:40;96600.56;;;16.89;100.00
55149;BME280;49539;48.160;11.530;2022-07-17T06:05:07;96601.88;;;16.97;100.00
55149;BME280;49539;48.160;11.530;2022-07-17T06:07:32;96603.47;;;17.07;100.00
55149;BME280;49539;48.160;11.530;2022-07-17T06:09:58;96594.31;;;17.10;100.00
55149;BME280;49539;48.160;11.530;2022-07-17T06:12:24;96601.88;;;17.19;100.00
55149;BME280;49539;48.160;11.530;2022-07-17T06:14:49;96594.16;;;17.26;100.00
55149;BME280;49539;48.160;11.530;2022-07-17T06:17:15;96597.22;;;17.28;100.00
55149;BME280;49539;48.160;11.530;2022-07-17T06:19:40;96603.44;;;17.42;100.00
55149;BME280;49539;48.160;11.530;2022-07-17T06:22:06;96600.75;;;17.51;100.00
55149;BME280;49539;48.160;11.530;2022-07-17T06:24:31;96601.25;;;17.58;100.00
55149;BME280;49539;48.160;11.530;2022-07-17T06:26:57;96601.16;;;17.71;100.00
55149;BME280;49539;48.160;11.530;2022-07-17T06:29:25;96599.13;;;17.84;100.00
55149;BME280;49539;48.160;11.530;2022-07-17T06:31:51;96600.72;;;17.95;100.00
55149;BME280;49539;48.160;11.530;2022-07-17T06:34:16;96599.16;;;17.94;100.00
55149;BME280;49539;48.160;11.530;2022-07-17T06:36:41;96600.16;;;18.09;100.00
55149;BME280;49539;48.160;11.530;2022-07-17T06:39:07;96602.78;;;18.22;100.00
55149;BME280;49539;48.160;11.530;2022-07-17T06:41:32;96600.06;;;18.31;100.00
55149;BME280;49539;48.160;11.530;2022-07-17T06:43:58;96603.94;;;18.43;100.00
55149;BME280;49539;48.160;11.530;2022-07-17T06:46:23;96600.22;;;18.27;100.00
55149;BME280;49539;48.160;11.530;2022-07-17T06:48:49;96603.44;;;18.35;100.00
55149;BME280;49539;48.160;11.530;2022-07-17T06:51:17;96607.81;;;18.54;100.00
55149;BME280;49539;48.160;11.530;2022-07-17T06:53:42;96604.44;;;18.59;100.00
55149;BME280;49539;48.160;11.530;2022-07-17T06:56:08;96610.75;;;18.69;100.00
55149;BME280;49539;48.160;11.530;2022-07-17T06:58:34;96606.38;;;18.81;100.00
55149;BME280;49539;48.160;11.530;2022-07-17T07:01:00;96610.66;;;18.91;100.00
55149;BME280;49539;48.160;11.530;2022-07-17T07:03:25;96606.38;;;18.90;100.00
55149;BME280;49539;48.160;11.530;2022-07-17T07:05:51;96616.50;;;19.02;100.00
55149;BME280;49539;48.160;11.530;2022-07-17T07:08:17;96606.22;;;19.12;100.00
55149;BME280;49539;48.160;11.530;2022-07-17T07:10:42;96611.91;;;19.18;100.00
55149;BME280;49539;48.160;11.530;2022-07-17T07:13:08;96604.66;;;19.29;100.00
55149;BME280;49539;48.160;11.530;2022-07-17T07:15:34;96606.50;;;19.42;100.00
55149;BME280;49539;48.160;11.530;2022-07-17T07:17:59;96606.03;;;19.52;100.00
55149;BME280;49539;48.160;11.530;2022-07-17T07:20:25;96607.25;;;19.61;100.00
55149;BME280;49539;48.160;11.530;2022-07-17T07:22:51;96606.03;;;19.71;99.57
55149;BME280;49539;48.160;11.530;2022-07-17T07:25:16;96608.34;;;19.72;96.26
55149;BME280;49539;48.160;11.530;2022-07-17T07:27:42;96605.38;;;19.85;89.84
55149;BME280;49539;48.160;11.530;2022-07-17T07:30:08;96602.59;;;19.94;90.44
55149;BME280;49539;48.160;11.530;2022-07-17T07:32:38;96607.31;;;20.03;87.56
55149;BME280;49539;48.160;11.530;2022-07-17T07:35:06;96614.06;;;20.11;86.95
55149;BME280;49539;48.160;11.530;2022-07-17T07:37:31;96601.31;;;20.14;87.07
55149;BME280;49539;48.160;11.530;2022-07-17T07:39:57;96608.75;;;20.31;87.49
55149;BME280;49539;48.160;11.530;2022-07-17T07:42:23;96613.59;;;20.46;79.54
55149;BME280;49539;48.160;11.530;2022-07-17T07:44:48;96612.69;;;20.49;73.54
55149;BME280;49539;48.160;11.530;2022-07-17T07:47:14;96609.75;;;20.52;83.74
55149;BME280;49539;48.160;11.530;2022-07-17T07:49:39;96605.13;;;20.59;83.55
55149;BME280;49539;48.160;11.530;2022-07-17T07:52:05;96614.88;;;20.69;83.05
55149;BME280;49539;48.160;11.530;2022-07-17T07:54:30;96602.41;;;20.73;71.53
55149;BME280;49539;48.160;11.530;2022-07-17T07:56:56;96606.00;;;20.89;72.58
55149;BME280;49539;48.160;11.530;2022-07-17T07:59:21;96609.00;;;21.00;66.62
55149;BME280;49539;48.160;11.530;2022-07-17T08:01:46;96609.41;;;21.08;62.06
55149;BME280;49539;48.160;11.530;2022-07-17T08:04:12;96607.31;;;21.17;62.80
55149;BME280;49539;48.160;11.530;2022-07-17T08:06:37;96606.97;;;21.24;65.82
55149;BME280;49539;48.160;11.530;2022-07-17T08:09:04;96606.19;;;21.24;69.51
55149;BME280;49539;48.160;11.530;2022-07-17T08:11:29;96604.91;;;21.34;58.82
55149;BME280;49539;48.160;11.530;2022-07-17T08:13:55;96617.75;;;21.22;60.63
55149;BME280;49539;48.160;11.530;2022-07-17T08:16:20;96613.09;;;21.28;57.70
55149;BME280;49539;48.160;11.530;2022-07-17T08:18:46;96612.53;;;21.39;57.96
55149;BME280;49539;48.160;11.530;2022-07-17T08:21:11;96613.59;;;21.42;60.25
55149;BME280;49539;48.160;11.530;2022-07-17T08:23:37;96612.31;;;21.52;60.72
55149;BME280;49539;48.160;11.530;2022-07-17T08:26:02;96616.88;;;21.55;63.78
55149;BME280;49539;48.160;11.530;2022-07-17T08:28:28;96616.91;;;21.70;59.65
55149;BME280;49539;48.160;11.530;2022-07-17T08:30:53;96617.75;;;21.76;56.56
55149;BME280;49539;48.160;11.530;2022-07-17T08:33:19;96619.00;;;21.90;52.18
55149;BME280;49539;48.160;11.530;2022-07-17T08:35:44;96626.06;;;21.91;57.33
55149;BME280;49539;48.160;11.530;2022-07-17T08:38:09;96626.66;;;22.10;54.66
55149;BME280;49539;48.160;11.530;2022-07-17T08:40:36;96626.91;;;22.12;58.51
55149;BME280;49539;48.160;11.530;2022-07-17T08:43:04;96622.13;;;22.12;58.42
55149;BME280;49539;48.160;11.530;2022-07-17T08:45:30;96623.19;;;22.00;55.15
55149;BME280;49539;48.160;11.530;2022-07-17T08:47:56;96635.09;;;22.15;51.65
55149;BME280;49539;48.160;11.530;2022-07-17T08:50:25;96639.06;;;22.29;48.39
55149;BME280;49539;48.160;11.530;2022-07-17T08:52:51;96632.50;;;22.26;51.21
55149;BME280;49539;48.160;11.530;2022-07-17T08:55:17;96635.03;;;22.45;46.66
55149;BME280;49539;48.160;11.530;2022-07-17T08:57:44;96640.34;;;22.63;45.25
55149;BME280;49539;48.160;11.530;2022-07-17T09:00:12;96639.31;;;22.61;50.93
55149;BME280;49539;48.160;11.530;2022-07-17T09:02:40;96633.38;;;22.53;48.60
55149;BME280;49539;48.160;11.530;2022-07-17T09:05:20;96635.53;;;22.28;50.34
55149;BME280;49539;48.160;11.530;2022-07-17T09:07:46;96631.75;;;22.46;50.69
55149;BME280;49539;48.160;11.530;2022-07-17T09:10:12;96636.97;;;22.39;49.80
55149;BME280;49539;48.160;11.530;2022-07-17T09:12:38;96628.97;;;22.61;47.69
55149;BME280;49539;48.160;11.530;2022-07-17T09:15:14;96622.44;;;22.64;47.94
55149;BME280;49539;48.160;11.530;2022-07-17T09:17:54;96634.69;;;22.72;51.82
55149;BME280;49539;48.160;11.530;2022-07-17T09:20:21;96632.69;;;22.58;51.40
55149;BME280;49539;48.160;11.530;2022-07-17T09:22:58;96626.19;;;22.61;53.00
55149;BME280;49539;48.160;11.530;2022-07-17T09:25:38;96620.50;;;22.70;53.18
55149;BME280;49539;48.160;11.530;2022-07-17T09:28:06;96621.97;;;22.86;49.93
55149;BME280;49539;48.160;11.530;2022-07-17T09:30:32;96619.69;;;22.85;53.29
55149;BME280;49539;48.160;11.530;2022-07-17T09:32:58;96623.16;;;22.79;51.63
55149;BME280;49539;48.160;11.530;2022-07-17T09:35:23;96630.19;;;22.95;50.89
55149;BME280;49539;48.160;11.530;2022-07-17T09:37:53;96631.25;;;22.83;50.73
55149;BME280;49539;48.160;11.530;2022-07-17T09:40:20;96629.22;;;22.98;52.06
55149;BME280;49539;48.160;11.530;2022-07-17T09:43:04;96634.56;;;23.22;48.79
55149;BME280;49539;48.160;11.530;2022-07-17T09:45:35;96621.66;;;23.19;48.44
55149;BME280;49539;48.160;11.530;2022-07-17T09:48:01;96634.28;;;23.00;48.29
55149;BME280;49539;48.160;11.530;2022-07-17T09:50:28;96632.50;;;23.17;48.15
55149;BME280;49539;48.160;11.530;2022-07-17T09:52:56;96633.84;;;23.48;47.51
55149;BME280;49539;48.160;11.530;2022-07-17T09:55:23;96630.38;;;23.53;42.27
55149;BME280;49539;48.160;11.530;2022-07-17T09:57:54;96622.75;;;23.27;44.09
55149;BME280;49539;48.160;11.530;2022-07-17T10:00:20;96629.84;;;23.28;45.83
55149;BME280;49539;48.160;11.530;2022-07-17T10:02:48;96630.94;;;23.37;43.68
55149;BME280;49539;48.160;11.530;2022-07-17T10:05:15;96634.03;;;23.65;43.46
55149;BME280;49539;48.160;11.530;2022-07-17T10:07:41;96631.19;;;23.80;44.81
55149;BME280;49539;48.160;11.530;2022-07-17T10:10:08;96630.84;;;23.72;45.26
55149;BME280;49539;48.160;11.530;2022-07-17T10:12:36;96633.41;;;23.75;44.35
55149;BME280;49539;48.160;11.530;2022-07-17T10:15:03;96635.81;;;23.88;43.38
55149;BME280;49539;48.160;11.530;2022-07-17T10:17:29;96631.22;;;24.11;43.05
55149;BME280;49539;48.160;11.530;2022-07-17T10:19:55;96632.53;;;24.21;39.91
55149;BME280;49539;48.160;11.530;2022-07-17T10:22:21;96637.00;;;23.82;41.05
55149;BME280;49539;48.160;11.530;2022-07-17T10:27:20;96644.44;;;24.22;41.71
55149;BME280;49539;48.160;11.530;2022-07-17T10:29:45;96644.72;;;24.24;40.09
55149;BME280;49539;48.160;11.530;2022-07-17T10:32:16;96636.81;;;24.17;39.64
55149;BME280;49539;48.160;11.530;2022-07-17T10:34:47;96641.63;;;24.16;43.16
55149;BME280;49539;48.160;11.530;2022-07-17T10:37:20;96638.91;;;24.27;42.73
55149;BME280;49539;48.160;11.530;2022-07-17T10:45:11;96637.81;;;24.88;41.77
55149;BME280;49539;48.160;11.530;2022-07-17T10:47:52;96626.38;;;24.81;38.11
55149;BME280;49539;48.160;11.530;2022-07-17T10:50:33;96633.19;;;24.74;39.84
55149;BME280;49539;48.160;11.530;2022-07-17T10:55:32;96617.25;;;24.74;40.37
55149;BME280;49539;48.160;11.530;2022-07-17T10:57:58;96620.13;;;24.97;40.22
55149;BME280;49539;48.160;11.530;2022-07-17T11:00:23;96618.09;;;24.92;38.83
55149;BME280;49539;48.160;11.530;2022-07-17T11:02:50;96615.16;;;25.12;39.43
55149;BME280;49539;48.160;11.530;2022-07-17T11:05:16;96609.63;;;25.23;38.16
55149;BME280;49539;48.160;11.530;2022-07-17T11:07:50;96612.94;;;25.28;36.32
55149;BME280;49539;48.160;11.530;2022-07-17T11:10:16;96611.38;;;25.15;36.54
55149;BME280;49539;48.160;11.530;2022-07-17T11:12:42;96607.66;;;25.46;37.91
55149;BME280;49539;48.160;11.530;2022-07-17T11:15:07;96610.25;;;25.67;37.51
55149;BME280;49539;48.160;11.530;2022-07-17T11:17:33;96608.22;;;25.67;35.41
55149;BME280;49539;48.160;11.530;2022-07-17T11:19:58;96608.78;;;25.77;35.15
55149;BME280;49539;48.160;11.530;2022-07-17T11:22:25;96604.16;;;25.52;37.03
55149;BME280;49539;48.160;11.530;2022-07-17T11:24:51;96600.34;;;25.60;34.98
55149;BME280;49539;48.160;11.530;2022-07-17T11:27:29;96596.59;;;25.86;33.85
55149;BME280;49539;48.160;11.530;2022-07-17T11:29:57;96583.69;;;25.88;31.85
55149;BME280;49539;48.160;11.530;2022-07-17T11:32:24;96592.28;;;25.79;35.41
55149;BME280;49539;48.160;11.530;2022-07-17T11:34:50;96586.19;;;25.92;33.15
55149;BME280;49539;48.160;11.530;2022-07-17T11:37:16;96577.78;;;26.37;32.20
55149;BME280;49539;48.160;11.530;2022-07-17T11:39:46;96572.22;;;26.42;33.95
55149;BME280;49539;48.160;11.530;2022-07-17T11:42:15;96570.69;;;26.53;33.25
55149;BME280;49539;48.160;11.530;2022-07-17T11:44:41;96571.94;;;26.57;33.33
55149;BME280;49539;48.160;11.530;2022-07-17T11:47:09;96574.25;;;26.53;30.27
55149;BME280;49539;48.160;11.530;2022-07-17T11:49:39;96565.09;;;26.53;31.06
55149;BME280;49539;48.160;11.530;2022-07-17T11:52:12;96568.34;;;26.79;32.09
55149;BME280;49539;48.160;11.530;2022-07-17T11:54:52;96576.97;;;26.81;31.11
55149;BME280;49539;48.160;11.530;2022-07-17T11:57:19;96569.53;;;27.01;30.86
55149;BME280;49539;48.160;11.530;2022-07-17T11:59:47;96573.63;;;26.83;30.52
55149;BME280;49539;48.160;11.530;2022-07-17T12:02:15;96573.34;;;26.97;31.57
55149;BME280;49539;48.160;11.530;2022-07-17T12:04:52;96566.31;;;27.38;30.64
55149;BME280;49539;48.160;11.530;2022-07-17T12:07:19;96562.72;;;27.43;30.64
55149;BME280;49539;48.160;11.530;2022-07-17T12:09:45;96562.75;;;27.79;31.42
55149;BME280;49539;48.160;11.530;2022-07-17T12:12:23;96557.44;;;27.34;28.29
55149;BME280;49539;48.160;11.530;2022-07-17T12:14:54;96565.31;;;27.77;27.56
55149;BME280;49539;48.160;11.530;2022-07-17T12:17:20;96567.22;;;27.93;30.77
55149;BME280;49539;48.160;11.530;2022-07-17T12:19:46;96562.84;;;27.98;29.22
55149;BME280;49539;48.160;11.530;2022-07-17T12:22:11;96555.72;;;28.27;27.88
55149;BME280;49539;48.160;11.530;2022-07-17T12:24:41;96561.97;;;28.68;28.39
55149;BME280;49539;48.160;11.530;2022-07-17T12:27:10;96551.56;;;28.39;29.21
55149;BME280;49539;48.160;11.530;2022-07-17T12:29:36;96552.56;;;28.66;28.47
55149;BME280;49539;48.160;11.530;2022-07-17T12:32:07;96544.03;;;28.96;27.51
55149;BME280;49539;48.160;11.530;2022-07-17T12:34:35;96543.25;;;29.01;27.28
55149;BME280;49539;48.160;11.530;2022-07-17T12:37:01;96543.75;;;28.56;25.39
55149;BME280;49539;48.160;11.530;2022-07-17T12:39:27;96550.91;;;27.97;28.44
55149;BME280;49539;48.160;11.530;2022-07-17T12:41:53;96548.84;;;27.98;28.21
55149;BME280;49539;48.160;11.530;2022-07-17T12:44:18;96546.63;;;28.20;26.61
55149;BME280;49539;48.160;11.530;2022-07-17T12:46:43;96549.31;;;28.07;26.33
55149;BME280;49539;48.160;11.530;2022-07-17T12:49:09;96545.00;;;28.31;26.83
55149;BME280;49539;48.160;11.530;2022-07-17T12:51:34;96551.34;;;28.61;28.05